Station: EBSP - 21/11/2017 09:51Z (il y a 26 minutes)
EBSP 210950Z AUTO 24010KT 210V270 2600 -SHRA FEW003/// BKN004/// 08/07 Q1014
Vent du 240º - 10 kt (vent de direction variable de 210º à 270º)
Visibilité: 2600 m - faible averses de pluie
Nuages épars à 300 pieds - Ciel 75% couvert à 400 pieds
Température: +08ºC - Point de rosée: +07ºC - QNH: 1014 hPa